Terminal Aerodrome Forecast
Issued by NWS Sioux Falls, SD

Home | Current Version | Previous Version | Text Only | Print | Product List | Glossary On
Versions: 1 2 3 4 5 6 7 8 9 10 11 12 13 14 15 16 17 18 19
000
FTUS43 KFSD 311028 AAA
TAFHON
TAF AMD
KHON 311028Z 3110/0106 01012KT 4SM BR OVC005
     FM311600 04014KT P6SM SCT008 OVC015
     FM010100 02017KT 2SM -SN OVC015=

USA.gov is the U.S. government's official web portal to all federal, state and local government web resources and services.